NJE809M EIDW-EICK
Flight info
| Callsign | NJE809M |
|---|---|
| Flight time | N/A |
| Altitude | 24000 |
| Route | OLONO6A/28L OLONO DCT TISMO TISMO1G |
| Aircraft | E55P/M-SBDFGHJ2RWY/LB2 |
Departure
| Time | N/A |
|---|---|
| Airport | Dublin Airport (EIDW) |
Arrival
| Time | 2026-05-04 22:10 |
|---|---|
| Airport | Cork International Airport (EICK) |
| Time | Latitude | Longitude | Altitude | Speed | Heading |
|---|---|---|---|---|---|
| 2026-05-04 21:47 | 52.33862 | -7.59218 | 24046 ft | 322 kts | 234° |
| 2026-05-04 21:48 | 52.32610 | -7.61825 | 23979 ft | 322 kts | 234° |
| 2026-05-04 21:48 | 52.31480 | -7.64165 | 23413 ft | 276 kts | 234° |
| 2026-05-04 21:48 | 52.30477 | -7.66238 | 22782 ft | 242 kts | 234° |
| 2026-05-04 21:48 | 52.29598 | -7.68061 | 22122 ft | 220 kts | 234° |
| 2026-05-04 21:49 | 52.28717 | -7.69889 | 21404 ft | 204 kts | 234° |
| 2026-05-04 21:49 | 52.27956 | -7.71467 | 20743 ft | 193 kts | 234° |
| 2026-05-04 21:49 | 52.27349 | -7.72725 | 20195 ft | 187 kts | 234° |
| 2026-05-04 21:49 | 52.26579 | -7.74320 | 19479 ft | 182 kts | 234° |
| 2026-05-04 21:50 | 52.25804 | -7.75927 | 18740 ft | 178 kts | 234° |
| 2026-05-04 21:50 | 52.25063 | -7.77461 | 18024 ft | 176 kts | 234° |
| 2026-05-04 21:50 | 52.24307 | -7.79024 | 17290 ft | 175 kts | 234° |
| 2026-05-04 21:50 | 52.23607 | -7.80472 | 16607 ft | 175 kts | 234° |
| 2026-05-04 21:51 | 52.22900 | -7.81931 | 15920 ft | 176 kts | 234° |
| 2026-05-04 21:51 | 52.22239 | -7.83296 | 15278 ft | 176 kts | 234° |
| 2026-05-04 21:51 | 52.21491 | -7.84840 | 14557 ft | 177 kts | 234° |
| 2026-05-04 21:51 | 52.20719 | -7.86432 | 13817 ft | 178 kts | 233° |
| 2026-05-04 21:52 | 52.19991 | -7.87932 | 13125 ft | 180 kts | 233° |
| 2026-05-04 21:52 | 52.19256 | -7.89444 | 12433 ft | 181 kts | 233° |
| 2026-05-04 21:52 | 52.18468 | -7.91065 | 11697 ft | 183 kts | 233° |
| 2026-05-04 21:52 | 52.17673 | -7.92690 | 10887 ft | 188 kts | 234° |
| 2026-05-04 21:53 | 52.16929 | -7.94212 | 10110 ft | 192 kts | 234° |
| 2026-05-04 21:53 | 52.16137 | -7.95836 | 9299 ft | 196 kts | 235° |
| 2026-05-04 21:53 | 52.15296 | -7.97561 | 8450 ft | 198 kts | 235° |
| 2026-05-04 21:53 | 52.14437 | -7.99322 | 7592 ft | 200 kts | 236° |
| 2026-05-04 21:54 | 52.13564 | -8.00950 | 6791 ft | 205 kts | 219° |
| 2026-05-04 21:54 | 52.12219 | -8.01730 | 6181 ft | 203 kts | 202° |
| 2026-05-04 21:54 | 52.10864 | -8.02343 | 5546 ft | 200 kts | 201° |
| 2026-05-04 21:54 | 52.09516 | -8.02933 | 4910 ft | 198 kts | 200° |
| 2026-05-04 21:55 | 52.08186 | -8.03504 | 4285 ft | 197 kts | 200° |
| 2026-05-04 21:55 | 52.06914 | -8.04038 | 4082 ft | 182 kts | 200° |
| 2026-05-04 21:55 | 52.05664 | -8.04564 | 4060 ft | 185 kts | 200° |
| 2026-05-04 21:55 | 52.04400 | -8.05094 | 4059 ft | 192 kts | 199° |
| 2026-05-04 21:56 | 52.03115 | -8.05632 | 4059 ft | 200 kts | 199° |
| 2026-05-04 21:56 | 52.01709 | -8.06218 | 4059 ft | 209 kts | 199° |
| 2026-05-04 21:56 | 52.00248 | -8.06826 | 4059 ft | 217 kts | 199° |
| 2026-05-04 21:56 | 51.98766 | -8.07441 | 4058 ft | 225 kts | 199° |
| 2026-05-04 21:57 | 51.97257 | -8.08067 | 4058 ft | 231 kts | 198° |
| 2026-05-04 21:57 | 51.95670 | -8.08724 | 4057 ft | 237 kts | 198° |
| 2026-05-04 21:57 | 51.94034 | -8.09401 | 4057 ft | 242 kts | 198° |
| 2026-05-04 21:57 | 51.92351 | -8.10096 | 4056 ft | 247 kts | 198° |
| 2026-05-04 21:58 | 51.90878 | -8.10705 | 4056 ft | 250 kts | 198° |
| 2026-05-04 21:58 | 51.89402 | -8.11314 | 4055 ft | 253 kts | 198° |
| 2026-05-04 21:58 | 51.87853 | -8.11954 | 4054 ft | 255 kts | 198° |
| 2026-05-04 21:58 | 51.86269 | -8.12607 | 4054 ft | 257 kts | 198° |
| 2026-05-04 21:59 | 51.84626 | -8.13284 | 4054 ft | 259 kts | 198° |
| 2026-05-04 21:59 | 51.82957 | -8.13972 | 4054 ft | 261 kts | 198° |
| 2026-05-04 21:59 | 51.81201 | -8.14694 | 4053 ft | 262 kts | 198° |
| 2026-05-04 21:59 | 51.79440 | -8.15418 | 4053 ft | 263 kts | 198° |
| 2026-05-04 22:00 | 51.77799 | -8.16093 | 4053 ft | 264 kts | 198° |
| 2026-05-04 22:00 | 51.76150 | -8.16769 | 4053 ft | 260 kts | 198° |
| 2026-05-04 22:00 | 51.74450 | -8.17465 | 4011 ft | 251 kts | 198° |
| 2026-05-04 22:00 | 51.72768 | -8.18154 | 3999 ft | 244 kts | 198° |
| 2026-05-04 22:01 | 51.71260 | -8.18769 | 3993 ft | 228 kts | 198° |
| 2026-05-04 22:01 | 51.69907 | -8.19321 | 3993 ft | 214 kts | 199° |
| 2026-05-04 22:01 | 51.68626 | -8.20239 | 3740 ft | 206 kts | 228° |
| 2026-05-04 22:01 | 51.67957 | -8.22275 | 3180 ft | 211 kts | 253° |
| 2026-05-04 22:02 | 51.67443 | -8.24476 | 3021 ft | 207 kts | 253° |
| 2026-05-04 22:02 | 51.66937 | -8.26672 | 3000 ft | 203 kts | 253° |
| 2026-05-04 22:02 | 51.66450 | -8.28803 | 2998 ft | 199 kts | 253° |
| 2026-05-04 22:02 | 51.65972 | -8.30908 | 2997 ft | 196 kts | 253° |
| 2026-05-04 22:03 | 51.65504 | -8.32968 | 2997 ft | 193 kts | 253° |
| 2026-05-04 22:03 | 51.65049 | -8.35020 | 2996 ft | 190 kts | 259° |
| 2026-05-04 22:03 | 51.65268 | -8.37018 | 3009 ft | 186 kts | 307° |
| 2026-05-04 22:03 | 51.66403 | -8.38008 | 3017 ft | 191 kts | 354° |
| 2026-05-04 22:04 | 51.67599 | -8.37223 | 3007 ft | 188 kts | 45° |
| 2026-05-04 22:04 | 51.68243 | -8.35526 | 2854 ft | 171 kts | 37° |
| 2026-05-04 22:04 | 51.69288 | -8.35246 | 2547 ft | 155 kts | 324° |
| 2026-05-04 22:04 | 51.69955 | -8.36597 | 2323 ft | 157 kts | 300° |
| 2026-05-04 22:05 | 51.70519 | -8.37938 | 2402 ft | 137 kts | 316° |
| 2026-05-04 22:05 | 51.71038 | -8.39396 | 1786 ft | 165 kts | 298° |
| 2026-05-04 22:05 | 51.71844 | -8.40604 | 1557 ft | 158 kts | 323° |
| 2026-05-04 22:05 | 51.72703 | -8.41647 | 1316 ft | 143 kts | 323° |
| 2026-05-04 22:06 | 51.73460 | -8.42381 | 1523 ft | 112 kts | 332° |
| 2026-05-04 22:06 | 51.74106 | -8.42888 | 1680 ft | 97 kts | 333° |
| 2026-05-04 22:06 | 51.74831 | -8.43421 | 1989 ft | 124 kts | 334° |
| 2026-05-04 22:06 | 51.75500 | -8.43874 | 2086 ft | 100 kts | 334° |
| 2026-05-04 22:07 | 51.76138 | -8.44296 | 1971 ft | 102 kts | 335° |
| 2026-05-04 22:07 | 51.76788 | -8.44711 | 1845 ft | 105 kts | 336° |
| 2026-05-04 22:07 | 51.77493 | -8.45150 | 1703 ft | 109 kts | 337° |
| 2026-05-04 22:07 | 51.78207 | -8.45586 | 1558 ft | 111 kts | 337° |
| 2026-05-04 22:08 | 51.78940 | -8.46027 | 1403 ft | 112 kts | 338° |
| 2026-05-04 22:08 | 51.79685 | -8.46472 | 1258 ft | 113 kts | 338° |
| 2026-05-04 22:08 | 51.80431 | -8.46916 | 1101 ft | 114 kts | 338° |
| 2026-05-04 22:08 | 51.81174 | -8.47357 | 942 ft | 109 kts | 338° |
| 2026-05-04 22:09 | 51.81890 | -8.47781 | 795 ft | 106 kts | 338° |
| 2026-05-04 22:09 | 51.82573 | -8.48175 | 650 ft | 102 kts | 338° |
| 2026-05-04 22:09 | 51.83245 | -8.48583 | 511 ft | 100 kts | 339° |
| 2026-05-04 22:09 | 51.83856 | -8.48941 | 469 ft | 83 kts | 340° |
| 2026-05-04 22:10 | 51.84179 | -8.49139 | 476 ft | 31 kts | 340° |
| 2026-05-04 22:10 | 51.84315 | -8.49119 | 482 ft | 18 kts | 62° |
| 2026-05-04 22:10 | 51.84378 | -8.48981 | 485 ft | 12 kts | 342° |
| 2026-05-04 22:10 | 51.84450 | -8.49017 | 489 ft | 8 kts | 341° |
| 2026-05-04 22:11 | 51.84492 | -8.49039 | 491 ft | 3 kts | 3° |
| 2026-05-04 22:11 | 51.84503 | -8.49029 | 492 ft | 3 kts | 52° |
| 2026-05-04 22:11 | 51.84513 | -8.48986 | 493 ft | 2 kts | 64° |
| 2026-05-04 22:11 | 51.84522 | -8.48979 | 493 ft | 1 kts | 347° |
| 2026-05-04 22:12 | 51.84527 | -8.48983 | 493 ft | 0 kts | 338° |
| 2026-05-04 22:12 | 51.84530 | -8.48984 | 493 ft | 0 kts | 339° |